Create Tblcommutelog Verified Points Advance Search
| # | Trip ID | Id Commuter | Trip Date | Trip Num | Current Lat | Current Lng | Delta Distance | Current Time | Activity | Activity Confidence | Current Speed | |
|---|---|---|---|---|---|---|---|---|---|---|---|---|
| 72061 | 260220_781438_16649118_1630 | 781438 | (not set) | (not set) | 38.9130239 | -77.0550334 | 2.2668 | 2026-02-20 16:45:30 | on_bicycle | 100 | 1.5914597619963 | |
| 72062 | 260220_781438_16649118_1630 | 781438 | (not set) | (not set) | 38.9262342 | -77.0453532 | 3.8915 | 2026-02-20 16:53:35 | walking | 100 | 2.659883590977 | |
| 72063 | 260220_781438_16649118_1630 | 781438 | (not set) | (not set) | 38.9378594 | -77.0515558 | 5.0925 | 2026-02-20 17:00:13 | on_bicycle | 100 | 2.4587159244325 | |
| 72064 | 260220_781438_16649118_1630 | 781438 | (not set) | (not set) | 38.9374615 | -77.0492497 | 6.1122 | 2026-02-20 17:10:07 | on_bicycle | 100 | 2.4587159244325 | |
| 72065 | 260220_779681_16647369_1708 | 779681 | (not set) | (not set) | 38.901865246134 | -77.004549864964 | 0.7315 | 2026-02-20 17:32:47 | still | 33 | 2.2977817911969 | |
| 72066 | 260220_781438_16649118_1630 | 781438 | (not set) | (not set) | 38.9309592 | -77.072906 | 7.8894 | 2026-02-20 17:28:05 | on_bicycle | 100 | 2.257548257888 | |
| 72067 | 260220_766077_16632982_1652 | 766077 | (not set) | (not set) | 38.806593645635 | -77.191879327025 | 8.0702 | 2026-02-20 17:33:00 | in_vehicle | 100 | -0.44703925898772 | |
| 72068 | 260220_777589_16645215_1702 | 777589 | (not set) | (not set) | 38.803323594692 | -77.158856895756 | 12.8787 | 2026-02-20 17:33:13 | in_vehicle | 100 | 8.1137625506272 | |
| 72069 | 260220_753957_16653467_1640 | 753957 | (not set) | (not set) | 38.926462217559 | -77.035435527909 | 9.9851 | 2026-02-20 17:22:51 | on_foot | 100 | 0.67949967366134 | |
| 72070 | 260220_753957_16653467_1640 | 753957 | (not set) | (not set) | 38.926462217559 | -77.035435527909 | 9.9851 | 2026-02-20 17:22:51 | on_foot | 100 | 0.67949967366134 | |
| 72071 | 260220_784980_16653028_1711 | 784980 | (not set) | (not set) | 39.016256514042 | -77.100479174477 | 1.5311 | 2026-02-20 17:23:06 | in_vehicle | 100 | 12.405339436909 | |
| 72072 | 260220_789067_16657841_1723 | 789067 | (not set) | (not set) | 39.0460378 | -77.1112192 | 0 | 2026-02-20 17:23:19 | walking | 100 | 0.52303593301564 | |
| 72073 | 260220_785997_16654252_1601 | 785997 | (not set) | (not set) | 39.372777748586 | -76.359987292788 | 55.6906 | 2026-02-20 17:23:20 | in_vehicle | 100 | 8.7440879057999 | |
| 72074 | 260220_789067_16657841_1723 | 789067 | (not set) | (not set) | 39.046042 | -77.1111238 | 0 | 2026-02-20 17:23:23 | walking | 100 | 0.48727279229662 | |
| 72075 | 260220_790588_16659617_1630 | 790588 | (not set) | (not set) | 39.031436473536 | -77.520166816459 | 21.1431 | 2026-02-20 17:23:35 | in_vehicle | 100 | 8.3283413949413 | |
| 72076 | 260220_777589_16645215_1702 | 777589 | (not set) | (not set) | 38.841047209077 | -77.21974908997 | 6.5302 | 2026-02-20 17:23:53 | in_vehicle | 100 | 10.670827112037 | |
| 72077 | 260220_775339_16642799_1722 | 775339 | (not set) | (not set) | 38.972408818305 | -77.429029651008 | 1.6622 | 2026-02-20 17:24:06 | in_vehicle | 100 | 9.3386501202536 | |
| 72078 | 260220_779681_16647369_1708 | 779681 | (not set) | (not set) | 38.899600915647 | -77.005695607585 | 0.7033 | 2026-02-20 17:24:21 | on_bicycle | 100 | 0 | |
| 72079 | 260220_777589_16645215_1702 | 777589 | (not set) | (not set) | 38.832722183214 | -77.218356897122 | 7.1118 | 2026-02-20 17:24:32 | in_vehicle | 100 | 11.359267570878 | |
| 72080 | 260220_790588_16659617_1630 | 790588 | (not set) | (not set) | 39.030480834263 | -77.526421907202 | 21.4979 | 2026-02-20 17:24:49 | in_vehicle | 100 | 0 |